sensor_id;sensor_type;location;lat;lon;timestamp;temperature;humidity
25532;DHT22;13429;48.816;9.118;2024-03-08T00:00:40;2.40;87.00
25532;DHT22;13429;48.816;9.118;2024-03-08T00:03:08;2.30;87.00
25532;DHT22;13429;48.816;9.118;2024-03-08T00:05:35;2.30;87.10
25532;DHT22;13429;48.816;9.118;2024-03-08T00:08:01;2.30;87.20
25532;DHT22;13429;48.816;9.118;2024-03-08T00:10:27;2.30;87.10
25532;DHT22;13429;48.816;9.118;2024-03-08T00:12:54;2.40;87.10
25532;DHT22;13429;48.816;9.118;2024-03-08T00:15:20;2.30;87.10
25532;DHT22;13429;48.816;9.118;2024-03-08T00:17:48;2.20;87.20
25532;DHT22;13429;48.816;9.118;2024-03-08T00:20:14;2.10;87.30
25532;DHT22;13429;48.816;9.118;2024-03-08T00:22:40;2.00;87.10
25532;DHT22;13429;48.816;9.118;2024-03-08T00:25:07;2.00;87.40
25532;DHT22;13429;48.816;9.118;2024-03-08T00:27:37;1.90;87.60
25532;DHT22;13429;48.816;9.118;2024-03-08T00:30:09;1.90;87.70
25532;DHT22;13429;48.816;9.118;2024-03-08T00:32:36;1.90;87.80
25532;DHT22;13429;48.816;9.118;2024-03-08T00:35:02;1.80;87.90
25532;DHT22;13429;48.816;9.118;2024-03-08T00:37:28;1.80;87.70
25532;DHT22;13429;48.816;9.118;2024-03-08T00:39:53;1.70;87.70
25532;DHT22;13429;48.816;9.118;2024-03-08T00:42:20;1.60;87.80
25532;DHT22;13429;48.816;9.118;2024-03-08T00:44:46;1.50;88.20
25532;DHT22;13429;48.816;9.118;2024-03-08T00:47:13;1.50;88.40
25532;DHT22;13429;48.816;9.118;2024-03-08T00:49:41;1.40;88.30
25532;DHT22;13429;48.816;9.118;2024-03-08T00:52:07;1.40;88.40
25532;DHT22;13429;48.816;9.118;2024-03-08T00:54:34;1.30;88.30
25532;DHT22;13429;48.816;9.118;2024-03-08T00:56:59;1.20;88.40
25532;DHT22;13429;48.816;9.118;2024-03-08T00:59:28;1.20;88.50
25532;DHT22;13429;48.816;9.118;2024-03-08T01:01:54;1.10;88.70
25532;DHT22;13429;48.816;9.118;2024-03-08T01:04:20;1.20;88.90
25532;DHT22;13429;48.816;9.118;2024-03-08T01:06:46;1.20;88.80
25532;DHT22;13429;48.816;9.118;2024-03-08T01:09:13;1.20;88.60
25532;DHT22;13429;48.816;9.118;2024-03-08T01:11:39;1.30;88.80
25532;DHT22;13429;48.816;9.118;2024-03-08T01:14:05;1.20;89.10
25532;DHT22;13429;48.816;9.118;2024-03-08T01:16:30;1.10;89.00
25532;DHT22;13429;48.816;9.118;2024-03-08T01:18:58;1.20;89.00
25532;DHT22;13429;48.816;9.118;2024-03-08T01:21:24;1.10;88.90
25532;DHT22;13429;48.816;9.118;2024-03-08T01:23:49;1.10;89.10
25532;DHT22;13429;48.816;9.118;2024-03-08T01:26:15;1.00;89.10
25532;DHT22;13429;48.816;9.118;2024-03-08T01:28:41;0.90;89.20
25532;DHT22;13429;48.816;9.118;2024-03-08T01:31:07;0.80;88.80
25532;DHT22;13429;48.816;9.118;2024-03-08T01:33:33;0.80;89.10
25532;DHT22;13429;48.816;9.118;2024-03-08T01:35:58;0.80;89.30
25532;DHT22;13429;48.816;9.118;2024-03-08T01:38:24;0.80;89.50
25532;DHT22;13429;48.816;9.118;2024-03-08T01:40:50;0.80;89.30
25532;DHT22;13429;48.816;9.118;2024-03-08T01:43:21;0.80;89.50
25532;DHT22;13429;48.816;9.118;2024-03-08T01:45:47;0.70;89.10
25532;DHT22;13429;48.816;9.118;2024-03-08T01:48:15;0.60;89.30
25532;DHT22;13429;48.816;9.118;2024-03-08T01:50:42;0.50;89.10
25532;DHT22;13429;48.816;9.118;2024-03-08T01:53:08;0.50;89.20
25532;DHT22;13429;48.816;9.118;2024-03-08T01:55:38;0.50;89.40
25532;DHT22;13429;48.816;9.118;2024-03-08T01:58:05;0.40;89.20
25532;DHT22;13429;48.816;9.118;2024-03-08T02:00:33;0.40;89.30
25532;DHT22;13429;48.816;9.118;2024-03-08T02:02:58;0.30;89.50
25532;DHT22;13429;48.816;9.118;2024-03-08T02:05:24;0.30;89.50
25532;DHT22;13429;48.816;9.118;2024-03-08T02:07:50;0.20;89.30
25532;DHT22;13429;48.816;9.118;2024-03-08T02:10:17;0.10;89.10
25532;DHT22;13429;48.816;9.118;2024-03-08T02:12:42;0.10;90.10
25532;DHT22;13429;48.816;9.118;2024-03-08T02:15:09;0.00;90.30
25532;DHT22;13429;48.816;9.118;2024-03-08T02:17:34;0.00;90.80
25532;DHT22;13429;48.816;9.118;2024-03-08T02:20:00;0.00;90.90
25532;DHT22;13429;48.816;9.118;2024-03-08T02:22:30;0.10;91.20
25532;DHT22;13429;48.816;9.118;2024-03-08T02:24:57;0.10;91.20
25532;DHT22;13429;48.816;9.118;2024-03-08T02:27:24;0.00;91.30
25532;DHT22;13429;48.816;9.118;2024-03-08T02:29:56;0.00;90.70
25532;DHT22;13429;48.816;9.118;2024-03-08T02:32:23;0.00;90.90
25532;DHT22;13429;48.816;9.118;2024-03-08T02:34:49;-3276.70;90.70
25532;DHT22;13429;48.816;9.118;2024-03-08T02:37:15;-3276.70;90.90
25532;DHT22;13429;48.816;9.118;2024-03-08T02:39:41;-3276.70;90.90
25532;DHT22;13429;48.816;9.118;2024-03-08T02:42:07;-3276.60;90.60
25532;DHT22;13429;48.816;9.118;2024-03-08T02:44:33;-3276.50;90.80
25532;DHT22;13429;48.816;9.118;2024-03-08T02:46:59;-3276.50;90.90
25532;DHT22;13429;48.816;9.118;2024-03-08T02:49:26;-3276.50;91.10
25532;DHT22;13429;48.816;9.118;2024-03-08T02:51:53;-3276.60;91.80
25532;DHT22;13429;48.816;9.118;2024-03-08T02:54:19;-3276.60;91.90
25532;DHT22;13429;48.816;9.118;2024-03-08T02:56:46;-3276.70;91.80
25532;DHT22;13429;48.816;9.118;2024-03-08T02:59:12;-3276.60;91.30
25532;DHT22;13429;48.816;9.118;2024-03-08T03:01:38;-3276.60;91.90
25532;DHT22;13429;48.816;9.118;2024-03-08T03:04:04;-3276.50;91.60
25532;DHT22;13429;48.816;9.118;2024-03-08T03:06:30;-3276.50;91.50
25532;DHT22;13429;48.816;9.118;2024-03-08T03:08:56;-3276.60;91.60
25532;DHT22;13429;48.816;9.118;2024-03-08T03:11:23;-3276.60;91.80
25532;DHT22;13429;48.816;9.118;2024-03-08T03:13:48;-3276.70;91.70
25532;DHT22;13429;48.816;9.118;2024-03-08T03:16:18;-3276.70;91.40
25532;DHT22;13429;48.816;9.118;2024-03-08T03:18:45;-3276.70;91.50
25532;DHT22;13429;48.816;9.118;2024-03-08T03:21:11;-3276.70;91.40
25532;DHT22;13429;48.816;9.118;2024-03-08T03:23:38;-3276.60;91.30
25532;DHT22;13429;48.816;9.118;2024-03-08T03:26:05;-3276.60;91.20
25532;DHT22;13429;48.816;9.118;2024-03-08T03:28:32;-3276.60;91.40
25532;DHT22;13429;48.816;9.118;2024-03-08T03:30:59;-3276.60;91.40
25532;DHT22;13429;48.816;9.118;2024-03-08T03:33:25;-3276.50;91.40
25532;DHT22;13429;48.816;9.118;2024-03-08T03:35:51;-3276.40;91.40
25532;DHT22;13429;48.816;9.118;2024-03-08T03:38:17;-3276.50;91.30
25532;DHT22;13429;48.816;9.118;2024-03-08T03:40:45;-3276.50;91.40
25532;DHT22;13429;48.816;9.118;2024-03-08T03:43:11;-3276.50;91.20
25532;DHT22;13429;48.816;9.118;2024-03-08T03:45:38;-3276.40;91.10
25532;DHT22;13429;48.816;9.118;2024-03-08T03:48:06;-3276.50;91.50
25532;DHT22;13429;48.816;9.118;2024-03-08T03:50:31;-3276.50;91.40
25532;DHT22;13429;48.816;9.118;2024-03-08T03:52:59;-3276.50;91.40
25532;DHT22;13429;48.816;9.118;2024-03-08T03:55:25;-3276.50;91.40
25532;DHT22;13429;48.816;9.118;2024-03-08T03:57:52;-3276.40;91.40
25532;DHT22;13429;48.816;9.118;2024-03-08T04:00:18;-3276.30;91.40
25532;DHT22;13429;48.816;9.118;2024-03-08T04:02:44;-3276.20;91.40
25532;DHT22;13429;48.816;9.118;2024-03-08T04:05:10;-3276.20;91.30
25532;DHT22;13429;48.816;9.118;2024-03-08T04:07:37;-3276.10;91.60
25532;DHT22;13429;48.816;9.118;2024-03-08T04:10:04;-3276.10;91.40
25532;DHT22;13429;48.816;9.118;2024-03-08T04:12:34;-3276.10;91.80
25532;DHT22;13429;48.816;9.118;2024-03-08T04:15:00;-3276.10;91.80
25532;DHT22;13429;48.816;9.118;2024-03-08T04:17:25;-3276.20;91.80
25532;DHT22;13429;48.816;9.118;2024-03-08T04:19:51;-3276.20;92.00
25532;DHT22;13429;48.816;9.118;2024-03-08T04:22:17;-3276.10;91.80
25532;DHT22;13429;48.816;9.118;2024-03-08T04:24:46;-3276.20;92.00
25532;DHT22;13429;48.816;9.118;2024-03-08T04:27:13;-3276.30;92.00
25532;DHT22;13429;48.816;9.118;2024-03-08T04:29:39;-3276.30;91.80
25532;DHT22;13429;48.816;9.118;2024-03-08T04:32:06;-3276.40;91.90
25532;DHT22;13429;48.816;9.118;2024-03-08T04:34:32;-3276.50;91.80
25532;DHT22;13429;48.816;9.118;2024-03-08T04:36:59;-3276.40;91.70
25532;DHT22;13429;48.816;9.118;2024-03-08T04:39:25;-3276.40;91.80
25532;DHT22;13429;48.816;9.118;2024-03-08T04:41:54;-3276.40;91.70
25532;DHT22;13429;48.816;9.118;2024-03-08T04:44:22;-3276.30;91.70
25532;DHT22;13429;48.816;9.118;2024-03-08T04:46:48;-3276.30;91.70
25532;DHT22;13429;48.816;9.118;2024-03-08T04:49:14;-3276.20;91.70
25532;DHT22;13429;48.816;9.118;2024-03-08T04:51:40;-3276.20;91.80
25532;DHT22;13429;48.816;9.118;2024-03-08T04:54:05;-3276.20;91.70
25532;DHT22;13429;48.816;9.118;2024-03-08T04:56:31;-3276.10;91.60
25532;DHT22;13429;48.816;9.118;2024-03-08T04:58:57;-3276.10;91.80
25532;DHT22;13429;48.816;9.118;2024-03-08T05:01:23;-3276.10;91.70
25532;DHT22;13429;48.816;9.118;2024-03-08T05:03:48;-3276.20;91.80
25532;DHT22;13429;48.816;9.118;2024-03-08T05:06:16;-3276.10;91.80
25532;DHT22;13429;48.816;9.118;2024-03-08T05:08:41;-3276.00;91.80
25532;DHT22;13429;48.816;9.118;2024-03-08T05:11:07;-3276.00;91.90
25532;DHT22;13429;48.816;9.118;2024-03-08T05:13:33;-3276.00;91.80
25532;DHT22;13429;48.816;9.118;2024-03-08T05:16:00;-3275.90;92.10
25532;DHT22;13429;48.816;9.118;2024-03-08T05:18:26;-3276.00;92.00
25532;DHT22;13429;48.816;9.118;2024-03-08T05:20:54;-3276.00;91.90
25532;DHT22;13429;48.816;9.118;2024-03-08T05:23:19;-3276.00;91.90
25532;DHT22;13429;48.816;9.118;2024-03-08T05:25:45;-3276.00;92.00
25532;DHT22;13429;48.816;9.118;2024-03-08T05:28:14;-3275.90;92.00
25532;DHT22;13429;48.816;9.118;2024-03-08T05:30:39;-3276.00;92.20
25532;DHT22;13429;48.816;9.118;2024-03-08T05:33:05;-3276.20;92.30
25532;DHT22;13429;48.816;9.118;2024-03-08T05:35:31;-3276.20;92.30
25532;DHT22;13429;48.816;9.118;2024-03-08T05:37:57;-3276.30;92.20
25532;DHT22;13429;48.816;9.118;2024-03-08T05:40:23;-3276.30;92.10
25532;DHT22;13429;48.816;9.118;2024-03-08T05:42:49;-3276.40;92.10
25532;DHT22;13429;48.816;9.118;2024-03-08T05:45:15;-3276.30;92.20
25532;DHT22;13429;48.816;9.118;2024-03-08T05:47:40;-3276.40;92.10
25532;DHT22;13429;48.816;9.118;2024-03-08T05:50:06;-3276.30;92.00
25532;DHT22;13429;48.816;9.118;2024-03-08T05:52:36;-3276.20;91.90
25532;DHT22;13429;48.816;9.118;2024-03-08T05:55:04;-3276.20;91.90
25532;DHT22;13429;48.816;9.118;2024-03-08T05:57:33;-3276.20;92.10
25532;DHT22;13429;48.816;9.118;2024-03-08T05:59:58;-3276.30;92.10
25532;DHT22;13429;48.816;9.118;2024-03-08T06:02:24;-3276.20;92.00
25532;DHT22;13429;48.816;9.118;2024-03-08T06:04:50;-3276.20;92.10
25532;DHT22;13429;48.816;9.118;2024-03-08T06:07:16;-3276.20;92.10
25532;DHT22;13429;48.816;9.118;2024-03-08T06:09:43;-3276.30;92.20
25532;DHT22;13429;48.816;9.118;2024-03-08T06:12:11;-3276.30;92.10
25532;DHT22;13429;48.816;9.118;2024-03-08T06:14:37;-3276.30;92.20
25532;DHT22;13429;48.816;9.118;2024-03-08T06:17:03;-3276.30;92.20
25532;DHT22;13429;48.816;9.118;2024-03-08T06:19:31;-3276.40;92.20
25532;DHT22;13429;48.816;9.118;2024-03-08T06:21:57;-3276.40;92.30
25532;DHT22;13429;48.816;9.118;2024-03-08T06:24:22;-3276.40;92.20
25532;DHT22;13429;48.816;9.118;2024-03-08T06:26:48;-3276.60;92.20
25532;DHT22;13429;48.816;9.118;2024-03-08T06:29:14;-3276.60;92.20
25532;DHT22;13429;48.816;9.118;2024-03-08T06:31:40;-3276.60;92.20
25532;DHT22;13429;48.816;9.118;2024-03-08T06:34:06;-3276.70;92.20
25532;DHT22;13429;48.816;9.118;2024-03-08T06:36:33;-3276.70;92.20
25532;DHT22;13429;48.816;9.118;2024-03-08T06:38:59;0.00;92.20
25532;DHT22;13429;48.816;9.118;2024-03-08T06:41:24;0.00;92.10
25532;DHT22;13429;48.816;9.118;2024-03-08T06:43:50;0.00;92.20
25532;DHT22;13429;48.816;9.118;2024-03-08T06:46:17;0.10;92.10
25532;DHT22;13429;48.816;9.118;2024-03-08T06:48:43;0.20;92.00
25532;DHT22;13429;48.816;9.118;2024-03-08T06:51:11;0.20;92.00
25532;DHT22;13429;48.816;9.118;2024-03-08T06:53:37;0.30;91.90
25532;DHT22;13429;48.816;9.118;2024-03-08T06:56:04;0.30;91.90
25532;DHT22;13429;48.816;9.118;2024-03-08T06:58:29;0.40;91.80
25532;DHT22;13429;48.816;9.118;2024-03-08T07:00:55;0.40;91.80
25532;DHT22;13429;48.816;9.118;2024-03-08T07:03:24;0.50;91.70
25532;DHT22;13429;48.816;9.118;2024-03-08T07:05:49;0.50;91.70
25532;DHT22;13429;48.816;9.118;2024-03-08T07:08:15;0.70;91.60
25532;DHT22;13429;48.816;9.118;2024-03-08T07:10:42;0.80;91.40
25532;DHT22;13429;48.816;9.118;2024-03-08T07:13:08;0.90;91.40
25532;DHT22;13429;48.816;9.118;2024-03-08T07:15:34;1.10;91.30
25532;DHT22;13429;48.816;9.118;2024-03-08T07:18:00;1.20;91.20
25532;DHT22;13429;48.816;9.118;2024-03-08T07:20:26;1.40;91.00
25532;DHT22;13429;48.816;9.118;2024-03-08T07:22:52;1.50;90.70
25532;DHT22;13429;48.816;9.118;2024-03-08T07:25:18;1.60;90.60
25532;DHT22;13429;48.816;9.118;2024-03-08T07:27:54;1.70;90.10
25532;DHT22;13429;48.816;9.118;2024-03-08T07:30:24;1.80;89.70
25532;DHT22;13429;48.816;9.118;2024-03-08T07:33:09;2.00;89.60
25532;DHT22;13429;48.816;9.118;2024-03-08T07:35:37;2.10;89.00
25532;DHT22;13429;48.816;9.118;2024-03-08T07:38:12;2.30;89.20
25532;DHT22;13429;48.816;9.118;2024-03-08T07:40:39;2.30;88.80
25532;DHT22;13429;48.816;9.118;2024-03-08T07:43:10;2.40;88.30
25532;DHT22;13429;48.816;9.118;2024-03-08T07:45:37;2.40;87.60
25532;DHT22;13429;48.816;9.118;2024-03-08T07:48:03;2.60;87.80
25532;DHT22;13429;48.816;9.118;2024-03-08T07:50:29;2.60;87.00
25532;DHT22;13429;48.816;9.118;2024-03-08T07:52:55;2.70;87.30
25532;DHT22;13429;48.816;9.118;2024-03-08T07:55:20;2.80;86.70
25532;DHT22;13429;48.816;9.118;2024-03-08T07:57:49;2.90;86.80
25532;DHT22;13429;48.816;9.118;2024-03-08T08:00:15;3.00;86.10
25532;DHT22;13429;48.816;9.118;2024-03-08T08:02:46;3.00;85.60
25532;DHT22;13429;48.816;9.118;2024-03-08T08:05:15;3.00;85.30
25532;DHT22;13429;48.816;9.118;2024-03-08T08:07:45;3.10;85.20
25532;DHT22;13429;48.816;9.118;2024-03-08T08:10:12;3.20;84.80
25532;DHT22;13429;48.816;9.118;2024-03-08T08:12:44;3.30;84.30
25532;DHT22;13429;48.816;9.118;2024-03-08T08:15:10;3.40;83.80
25532;DHT22;13429;48.816;9.118;2024-03-08T08:17:36;3.40;83.40
25532;DHT22;13429;48.816;9.118;2024-03-08T08:20:01;3.50;83.80
25532;DHT22;13429;48.816;9.118;2024-03-08T08:22:30;3.60;82.90
25532;DHT22;13429;48.816;9.118;2024-03-08T08:24:56;3.50;82.30
25532;DHT22;13429;48.816;9.118;2024-03-08T08:27:22;3.50;83.10
25532;DHT22;13429;48.816;9.118;2024-03-08T08:29:47;3.60;83.00
25532;DHT22;13429;48.816;9.118;2024-03-08T08:32:15;3.50;82.60
25532;DHT22;13429;48.816;9.118;2024-03-08T08:34:40;3.50;82.40
25532;DHT22;13429;48.816;9.118;2024-03-08T08:37:07;3.50;82.10
25532;DHT22;13429;48.816;9.118;2024-03-08T08:39:35;3.70;82.10
25532;DHT22;13429;48.816;9.118;2024-03-08T08:42:01;3.70;81.50
25532;DHT22;13429;48.816;9.118;2024-03-08T08:44:28;3.80;81.40
25532;DHT22;13429;48.816;9.118;2024-03-08T08:46:53;3.80;81.50
25532;DHT22;13429;48.816;9.118;2024-03-08T08:49:19;3.80;81.40
25532;DHT22;13429;48.816;9.118;2024-03-08T08:51:49;3.90;81.30
25532;DHT22;13429;48.816;9.118;2024-03-08T08:54:15;3.90;80.70
25532;DHT22;13429;48.816;9.118;2024-03-08T08:56:42;3.90;80.90
25532;DHT22;13429;48.816;9.118;2024-03-08T08:59:09;4.00;80.40
25532;DHT22;13429;48.816;9.118;2024-03-08T09:01:35;4.10;79.80
25532;DHT22;13429;48.816;9.118;2024-03-08T09:04:01;4.10;79.90
25532;DHT22;13429;48.816;9.118;2024-03-08T09:06:26;4.30;79.70
25532;DHT22;13429;48.816;9.118;2024-03-08T09:08:52;4.30;79.10
25532;DHT22;13429;48.816;9.118;2024-03-08T09:11:18;4.30;79.30
25532;DHT22;13429;48.816;9.118;2024-03-08T09:13:47;4.30;79.20
25532;DHT22;13429;48.816;9.118;2024-03-08T09:16:12;4.40;79.40
25532;DHT22;13429;48.816;9.118;2024-03-08T09:18:38;4.40;79.30
25532;DHT22;13429;48.816;9.118;2024-03-08T09:21:04;4.50;79.30
25532;DHT22;13429;48.816;9.118;2024-03-08T09:23:30;4.50;79.00
25532;DHT22;13429;48.816;9.118;2024-03-08T09:25:56;4.50;78.80
25532;DHT22;13429;48.816;9.118;2024-03-08T09:28:25;4.50;78.40
25532;DHT22;13429;48.816;9.118;2024-03-08T09:30:52;4.40;77.70
25532;DHT22;13429;48.816;9.118;2024-03-08T09:33:18;4.30;78.70
25532;DHT22;13429;48.816;9.118;2024-03-08T09:35:45;4.40;78.60
25532;DHT22;13429;48.816;9.118;2024-03-08T09:38:14;4.40;78.40
25532;DHT22;13429;48.816;9.118;2024-03-08T09:40:43;4.50;77.90
25532;DHT22;13429;48.816;9.118;2024-03-08T09:43:09;4.40;77.40
25532;DHT22;13429;48.816;9.118;2024-03-08T09:45:40;4.80;79.40
25532;DHT22;13429;48.816;9.118;2024-03-08T09:48:10;5.10;77.70
25532;DHT22;13429;48.816;9.118;2024-03-08T09:50:38;5.20;77.70
25532;DHT22;13429;48.816;9.118;2024-03-08T09:53:04;5.10;76.70
25532;DHT22;13429;48.816;9.118;2024-03-08T09:55:36;5.00;76.40
25532;DHT22;13429;48.816;9.118;2024-03-08T09:58:05;4.90;75.50
25532;DHT22;13429;48.816;9.118;2024-03-08T10:00:49;4.90;76.60
25532;DHT22;13429;48.816;9.118;2024-03-08T10:03:15;4.90;75.80
25532;DHT22;13429;48.816;9.118;2024-03-08T10:05:42;5.10;76.20
25532;DHT22;13429;48.816;9.118;2024-03-08T10:08:08;5.20;76.30
25532;DHT22;13429;48.816;9.118;2024-03-08T10:10:35;5.30;76.30
25532;DHT22;13429;48.816;9.118;2024-03-08T10:13:01;5.60;75.40
25532;DHT22;13429;48.816;9.118;2024-03-08T10:15:27;5.50;73.80
25532;DHT22;13429;48.816;9.118;2024-03-08T10:17:58;5.40;74.90
25532;DHT22;13429;48.816;9.118;2024-03-08T10:20:24;5.50;74.70
25532;DHT22;13429;48.816;9.118;2024-03-08T10:22:50;5.60;74.90
25532;DHT22;13429;48.816;9.118;2024-03-08T10:25:16;5.70;74.60
25532;DHT22;13429;48.816;9.118;2024-03-08T10:27:42;5.80;74.40
25532;DHT22;13429;48.816;9.118;2024-03-08T10:30:15;5.80;73.50
25532;DHT22;13429;48.816;9.118;2024-03-08T10:32:45;5.80;73.50
25532;DHT22;13429;48.816;9.118;2024-03-08T10:35:11;5.80;73.30
25532;DHT22;13429;48.816;9.118;2024-03-08T10:37:48;6.10;72.80
25532;DHT22;13429;48.816;9.118;2024-03-08T10:40:19;6.10;72.60
25532;DHT22;13429;48.816;9.118;2024-03-08T10:43:05;6.10;72.10
25532;DHT22;13429;48.816;9.118;2024-03-08T10:45:39;5.90;72.40
25532;DHT22;13429;48.816;9.118;2024-03-08T10:50:38;6.20;71.50
25532;DHT22;13429;48.816;9.118;2024-03-08T10:53:06;6.30;71.70
25532;DHT22;13429;48.816;9.118;2024-03-08T10:55:33;6.20;70.70
25532;DHT22;13429;48.816;9.118;2024-03-08T10:57:59;6.30;72.10
25532;DHT22;13429;48.816;9.118;2024-03-08T11:00:26;6.60;70.10
25532;DHT22;13429;48.816;9.118;2024-03-08T11:02:53;6.40;70.80
25532;DHT22;13429;48.816;9.118;2024-03-08T11:05:39;6.70;70.20
25532;DHT22;13429;48.816;9.118;2024-03-08T11:10:53;7.10;69.30
25532;DHT22;13429;48.816;9.118;2024-03-08T11:13:40;7.20;69.20
25532;DHT22;13429;48.816;9.118;2024-03-08T11:18:59;7.10;68.90
25532;DHT22;13429;48.816;9.118;2024-03-08T11:21:33;7.10;68.70
25532;DHT22;13429;48.816;9.118;2024-03-08T11:24:06;7.10;68.60
25532;DHT22;13429;48.816;9.118;2024-03-08T11:26:33;7.00;68.20
25532;DHT22;13429;48.816;9.118;2024-03-08T11:32:12;6.80;68.40
25532;DHT22;13429;48.816;9.118;2024-03-08T11:34:42;6.60;68.60
25532;DHT22;13429;48.816;9.118;2024-03-08T11:37:13;6.40;69.60
25532;DHT22;13429;48.816;9.118;2024-03-08T11:39:45;6.30;69.80
25532;DHT22;13429;48.816;9.118;2024-03-08T11:42:11;6.50;70.30
25532;DHT22;13429;48.816;9.118;2024-03-08T11:44:37;6.70;70.10
25532;DHT22;13429;48.816;9.118;2024-03-08T11:47:08;6.80;69.80
25532;DHT22;13429;48.816;9.118;2024-03-08T11:49:36;6.70;69.70
25532;DHT22;13429;48.816;9.118;2024-03-08T11:52:01;6.90;69.90
25532;DHT22;13429;48.816;9.118;2024-03-08T11:54:28;6.90;69.10
25532;DHT22;13429;48.816;9.118;2024-03-08T11:56:56;6.80;69.90
25532;DHT22;13429;48.816;9.118;2024-03-08T11:59:27;6.90;69.70
25532;DHT22;13429;48.816;9.118;2024-03-08T12:02:06;7.10;70.20
25532;DHT22;13429;48.816;9.118;2024-03-08T12:04:32;7.30;69.10
25532;DHT22;13429;48.816;9.118;2024-03-08T12:07:02;7.20;68.60
25532;DHT22;13429;48.816;9.118;2024-03-08T12:09:31;7.30;68.90
25532;DHT22;13429;48.816;9.118;2024-03-08T12:11:58;7.30;68.30
25532;DHT22;13429;48.816;9.118;2024-03-08T12:14:24;7.20;68.70
25532;DHT22;13429;48.816;9.118;2024-03-08T12:16:51;7.40;69.10
25532;DHT22;13429;48.816;9.118;2024-03-08T12:19:17;7.50;68.50
25532;DHT22;13429;48.816;9.118;2024-03-08T12:21:43;7.20;68.40
25532;DHT22;13429;48.816;9.118;2024-03-08T12:24:15;7.30;68.80
25532;DHT22;13429;48.816;9.118;2024-03-08T12:26:45;7.20;68.40
25532;DHT22;13429;48.816;9.118;2024-03-08T12:31:41;7.40;67.70
25532;DHT22;13429;48.816;9.118;2024-03-08T12:34:08;7.50;68.00
25532;DHT22;13429;48.816;9.118;2024-03-08T12:36:35;7.40;67.50
25532;DHT22;13429;48.816;9.118;2024-03-08T12:39:02;7.60;68.10
25532;DHT22;13429;48.816;9.118;2024-03-08T12:41:29;7.50;67.60
25532;DHT22;13429;48.816;9.118;2024-03-08T12:43:55;7.40;67.20
25532;DHT22;13429;48.816;9.118;2024-03-08T12:46:21;7.60;67.70
25532;DHT22;13429;48.816;9.118;2024-03-08T12:48:47;7.70;67.90
25532;DHT22;13429;48.816;9.118;2024-03-08T12:51:14;7.70;67.30
25532;DHT22;13429;48.816;9.118;2024-03-08T12:53:44;7.90;68.20
25532;DHT22;13429;48.816;9.118;2024-03-08T12:56:11;8.10;67.90
25532;DHT22;13429;48.816;9.118;2024-03-08T12:58:37;8.00;67.10
25532;DHT22;13429;48.816;9.118;2024-03-08T13:01:04;8.10;67.70
25532;DHT22;13429;48.816;9.118;2024-03-08T13:03:37;8.20;67.40
25532;DHT22;13429;48.816;9.118;2024-03-08T13:06:03;8.40;67.10
25532;DHT22;13429;48.816;9.118;2024-03-08T13:08:35;8.20;66.80
25532;DHT22;13429;48.816;9.118;2024-03-08T13:11:01;8.40;66.80
25532;DHT22;13429;48.816;9.118;2024-03-08T13:13:28;8.60;66.70
25532;DHT22;13429;48.816;9.118;2024-03-08T13:15:54;8.80;67.30
25532;DHT22;13429;48.816;9.118;2024-03-08T13:18:22;8.60;64.70
25532;DHT22;13429;48.816;9.118;2024-03-08T13:20:48;8.30;64.50
25532;DHT22;13429;48.816;9.118;2024-03-08T13:23:17;8.40;66.50
25532;DHT22;13429;48.816;9.118;2024-03-08T13:25:43;8.70;65.70
25532;DHT22;13429;48.816;9.118;2024-03-08T13:28:09;8.90;65.60
25532;DHT22;13429;48.816;9.118;2024-03-08T13:30:36;9.00;65.40
25532;DHT22;13429;48.816;9.118;2024-03-08T13:33:02;9.00;65.00
25532;DHT22;13429;48.816;9.118;2024-03-08T13:35:30;9.10;65.40
25532;DHT22;13429;48.816;9.118;2024-03-08T13:37:56;9.20;64.30
25532;DHT22;13429;48.816;9.118;2024-03-08T13:40:22;9.10;64.40
25532;DHT22;13429;48.816;9.118;2024-03-08T13:42:48;9.00;63.50
25532;DHT22;13429;48.816;9.118;2024-03-08T13:45:14;9.00;64.40
25532;DHT22;13429;48.816;9.118;2024-03-08T13:47:43;9.10;64.30
25532;DHT22;13429;48.816;9.118;2024-03-08T13:50:10;9.00;63.90
25532;DHT22;13429;48.816;9.118;2024-03-08T13:52:39;8.90;63.20
25532;DHT22;13429;48.816;9.118;2024-03-08T13:55:06;8.90;63.60
25532;DHT22;13429;48.816;9.118;2024-03-08T13:57:32;9.00;62.80
25532;DHT22;13429;48.816;9.118;2024-03-08T13:59:58;9.10;63.40
25532;DHT22;13429;48.816;9.118;2024-03-08T14:02:24;9.00;62.90
25532;DHT22;13429;48.816;9.118;2024-03-08T14:04:53;9.10;63.40
25532;DHT22;13429;48.816;9.118;2024-03-08T14:07:20;9.10;62.80
25532;DHT22;13429;48.816;9.118;2024-03-08T14:09:46;9.10;62.90
25532;DHT22;13429;48.816;9.118;2024-03-08T14:12:11;9.20;62.90
25532;DHT22;13429;48.816;9.118;2024-03-08T14:14:37;9.20;62.90
25532;DHT22;13429;48.816;9.118;2024-03-08T14:17:03;9.30;63.40
25532;DHT22;13429;48.816;9.118;2024-03-08T14:19:29;9.50;62.70
25532;DHT22;13429;48.816;9.118;2024-03-08T14:21:59;9.60;62.80
25532;DHT22;13429;48.816;9.118;2024-03-08T14:24:25;9.60;61.70
25532;DHT22;13429;48.816;9.118;2024-03-08T14:26:51;9.60;61.10
25532;DHT22;13429;48.816;9.118;2024-03-08T14:29:17;9.60;61.80
25532;DHT22;13429;48.816;9.118;2024-03-08T14:31:46;9.70;62.10
25532;DHT22;13429;48.816;9.118;2024-03-08T14:34:11;9.80;62.20
25532;DHT22;13429;48.816;9.118;2024-03-08T14:36:39;9.80;61.20
25532;DHT22;13429;48.816;9.118;2024-03-08T14:39:05;9.90;61.10
25532;DHT22;13429;48.816;9.118;2024-03-08T14:41:33;9.80;60.70
25532;DHT22;13429;48.816;9.118;2024-03-08T14:43:58;9.80;61.10
25532;DHT22;13429;48.816;9.118;2024-03-08T14:46:25;9.80;60.60
25532;DHT22;13429;48.816;9.118;2024-03-08T14:48:55;9.80;59.90
25532;DHT22;13429;48.816;9.118;2024-03-08T14:51:21;9.80;60.60
25532;DHT22;13429;48.816;9.118;2024-03-08T14:53:52;9.80;60.90
25532;DHT22;13429;48.816;9.118;2024-03-08T14:56:18;9.80;60.90
25532;DHT22;13429;48.816;9.118;2024-03-08T14:58:46;9.80;60.50
25532;DHT22;13429;48.816;9.118;2024-03-08T15:01:18;9.80;61.30
25532;DHT22;13429;48.816;9.118;2024-03-08T15:03:50;9.80;60.80
25532;DHT22;13429;48.816;9.118;2024-03-08T15:06:16;9.60;60.20
25532;DHT22;13429;48.816;9.118;2024-03-08T15:08:45;9.80;61.20
25532;DHT22;13429;48.816;9.118;2024-03-08T15:11:11;9.90;61.10
25532;DHT22;13429;48.816;9.118;2024-03-08T15:13:37;9.90;60.90
25532;DHT22;13429;48.816;9.118;2024-03-08T15:16:09;10.00;60.90
25532;DHT22;13429;48.816;9.118;2024-03-08T15:18:44;10.00;60.70
25532;DHT22;13429;48.816;9.118;2024-03-08T15:21:14;9.90;60.70
25532;DHT22;13429;48.816;9.118;2024-03-08T15:23:44;9.90;60.80
25532;DHT22;13429;48.816;9.118;2024-03-08T15:26:15;9.90;60.70
25532;DHT22;13429;48.816;9.118;2024-03-08T15:28:42;9.80;60.70
25532;DHT22;13429;48.816;9.118;2024-03-08T15:31:09;9.70;61.30
25532;DHT22;13429;48.816;9.118;2024-03-08T15:33:38;9.80;61.20
25532;DHT22;13429;48.816;9.118;2024-03-08T15:36:11;9.80;61.20
25532;DHT22;13429;48.816;9.118;2024-03-08T15:38:40;9.80;61.20
25532;DHT22;13429;48.816;9.118;2024-03-08T15:41:05;9.80;61.50
25532;DHT22;13429;48.816;9.118;2024-03-08T15:43:38;9.80;61.40